createdAt,value
2022-08-19T00:01:52.806Z,101176.08
2022-08-19T00:04:25.543Z,101177.99
2022-08-19T00:06:54.482Z,101182.96
2022-08-19T00:09:24.543Z,101183.14
2022-08-19T00:11:54.517Z,101175.67
2022-08-19T00:14:24.325Z,101173.36
2022-08-19T00:16:55.604Z,101164.44
2022-08-19T00:19:24.687Z,101163.11
2022-08-19T00:21:53.752Z,101165.23
2022-08-19T00:24:21.909Z,101165.98
2022-08-19T00:26:51.519Z,101170.94
2022-08-19T00:29:21.533Z,101171.92
2022-08-19T00:31:51.264Z,101178.32
2022-08-19T00:34:19.265Z,101183.48
2022-08-19T00:36:48.592Z,101179.59
2022-08-19T00:39:17.659Z,101182.30
2022-08-19T00:41:50.134Z,101189.56
2022-08-19T00:44:27.454Z,101195.71
2022-08-19T00:46:59.428Z,101195.70
2022-08-19T00:49:52.997Z,101188.23
2022-08-19T00:52:28.164Z,101185.02
2022-08-19T00:54:57.976Z,101187.86
2022-08-19T00:57:39.474Z,101190.87
2022-08-19T01:00:13.105Z,101192.16
2022-08-19T01:02:43.297Z,101193.67
2022-08-19T01:05:24.426Z,101198.45
2022-08-19T01:07:52.716Z,101193.13
2022-08-19T01:10:25.698Z,101194.47
2022-08-19T01:12:55.954Z,101189.35
2022-08-19T01:15:31.152Z,101185.70
2022-08-19T01:18:03.209Z,101184.03
2022-08-19T01:20:31.638Z,101184.32
2022-08-19T01:23:00.239Z,101186.92
2022-08-19T01:25:42.685Z,101190.23
2022-08-19T01:28:17.541Z,101187.95
2022-08-19T01:30:51.061Z,101192.82
2022-08-19T01:33:20.642Z,101195.48
2022-08-19T01:35:52.573Z,101188.30
2022-08-19T01:38:24.991Z,101184.48
2022-08-19T01:40:53.778Z,101182.09
2022-08-19T01:43:22.005Z,101177.77
2022-08-19T01:45:50.003Z,101177.30
2022-08-19T01:48:18.095Z,101176.23
2022-08-19T01:50:46.219Z,101178.23
2022-08-19T01:53:14.903Z,101175.77
2022-08-19T01:55:44.544Z,101176.20
2022-08-19T01:58:19.878Z,101172.37
2022-08-19T02:00:48.113Z,101179.39
2022-08-19T02:03:17.403Z,101182.86
2022-08-19T02:05:46.930Z,101180.48
2022-08-19T02:08:15.105Z,101181.54
2022-08-19T02:10:44.841Z,101178.98
2022-08-19T02:13:14.585Z,101177.86
2022-08-19T02:15:43.247Z,101177.73
2022-08-19T02:18:11.888Z,101175.96
2022-08-19T02:20:41.055Z,101178.34
2022-08-19T02:23:13.440Z,101181.56
2022-08-19T02:25:43.883Z,101180.88
2022-08-19T02:28:15.588Z,101179.32
2022-08-19T02:30:48.227Z,101175.12
2022-08-19T02:33:17.064Z,101178.67
2022-08-19T02:35:47.016Z,101178.85
2022-08-19T02:38:28.811Z,101178.48
2022-08-19T02:41:00.626Z,101176.67
2022-08-19T02:43:33.955Z,101175.45
2022-08-19T02:46:03.897Z,101172.24
2022-08-19T02:48:34.200Z,101170.50
2022-08-19T02:51:02.324Z,101168.98
2022-08-19T02:53:30.516Z,101167.86
2022-08-19T02:55:58.894Z,101168.17
2022-08-19T02:58:27.890Z,101171.87
2022-08-19T03:00:57.898Z,101169.17
2022-08-19T03:03:26.521Z,101170.55
2022-08-19T03:06:14.268Z,101171.70
2022-08-19T03:08:47.396Z,101173.41
2022-08-19T03:11:23.424Z,101173.73
2022-08-19T03:13:52.132Z,101172.23
2022-08-19T03:16:23.011Z,101167.62
2022-08-19T03:18:52.619Z,101168.20
2022-08-19T03:21:26.077Z,101167.50
2022-08-19T03:23:59.640Z,101173.88
2022-08-19T03:26:28.113Z,101175.38
2022-08-19T03:28:58.695Z,101177.98
2022-08-19T03:31:44.643Z,101173.92
2022-08-19T03:34:21.388Z,101172.89
2022-08-19T03:36:49.823Z,101173.26
2022-08-19T03:39:18.699Z,101176.13
2022-08-19T03:41:48.830Z,101175.35
2022-08-19T03:44:22.787Z,101171.20
2022-08-19T03:46:55.123Z,101169.56
2022-08-19T03:49:27.063Z,101167.88
2022-08-19T03:52:01.481Z,101164.25
2022-08-19T03:54:29.912Z,101166.27
2022-08-19T03:56:58.589Z,101170.09
2022-08-19T03:59:30.314Z,101173.50
2022-08-19T04:02:01.187Z,101175.68
2022-08-19T04:04:30.589Z,101173.20
2022-08-19T04:07:00.195Z,101172.30
2022-08-19T04:09:28.388Z,101171.60
2022-08-19T04:11:58.602Z,101171.98
2022-08-19T04:14:31.398Z,101171.27
2022-08-19T04:17:00.955Z,101175.85
2022-08-19T04:19:31.510Z,101180.77
2022-08-19T04:21:59.989Z,101180.19
2022-08-19T04:24:29.134Z,101181.15
2022-08-19T04:26:57.352Z,101180.73
2022-08-19T04:29:26.512Z,101177.50
2022-08-19T04:31:57.156Z,101185.61
2022-08-19T04:34:29.436Z,101184.51
2022-08-19T04:36:59.989Z,101180.46
2022-08-19T04:39:50.540Z,101177.17
2022-08-19T04:42:37.635Z,101178.25
2022-08-19T04:45:15.129Z,101179.40
2022-08-19T04:47:48.060Z,101180.89
2022-08-19T04:50:27.967Z,101169.73
2022-08-19T04:52:57.521Z,101168.17
2022-08-19T04:55:28.764Z,101173.70
2022-08-19T04:57:56.837Z,101172.29
2022-08-19T05:00:24.958Z,101171.52
2022-08-19T05:02:53.247Z,101176.80
2022-08-19T05:05:22.075Z,101176.30
2022-08-19T05:07:50.250Z,101176.91
2022-08-19T05:10:18.626Z,101179.89
2022-08-19T05:12:46.692Z,101174.84
2022-08-19T05:15:15.019Z,101174.27
2022-08-19T05:18:03.221Z,101176.23
2022-08-19T05:20:50.124Z,101173.25
2022-08-19T05:23:22.015Z,101172.05
2022-08-19T05:25:52.881Z,101169.27
2022-08-19T05:28:21.709Z,101168.48
2022-08-19T05:30:52.050Z,101167.81
2022-08-19T05:33:20.436Z,101164.38
2022-08-19T05:35:50.487Z,101164.84
2022-08-19T05:38:18.957Z,101161.83
2022-08-19T05:40:50.692Z,101157.18
2022-08-19T05:43:18.730Z,101157.84
2022-08-19T05:45:47.317Z,101161.18
2022-08-19T05:48:15.486Z,101161.34
2022-08-19T05:50:43.772Z,101166.36
2022-08-19T05:53:11.831Z,101171.97
2022-08-19T05:55:40.106Z,101173.55
2022-08-19T05:58:08.777Z,101171.83
2022-08-19T06:00:38.253Z,101172.63
2022-08-19T06:03:12.848Z,101174.96
2022-08-19T06:05:50.189Z,101181.36
2022-08-19T06:08:21.018Z,101185.27
2022-08-19T06:11:26.614Z,101199.68
2022-08-19T06:13:59.339Z,101212.58
2022-08-19T06:16:29.416Z,101217.32
2022-08-19T06:19:00.730Z,101214.83
2022-08-19T06:21:31.419Z,101209.27
2022-08-19T06:24:00.312Z,101207.77
2022-08-19T06:26:28.791Z,101204.66
2022-08-19T06:28:56.839Z,101197.36
2022-08-19T06:31:27.990Z,101195.73
2022-08-19T06:33:56.526Z,101198.06
2022-08-19T06:36:31.228Z,101198.09
2022-08-19T06:39:00.321Z,101200.32
2022-08-19T06:41:29.697Z,101196.88
2022-08-19T06:43:58.453Z,101208.55
2022-08-19T06:46:27.774Z,101215.27
2022-08-19T06:48:58.984Z,101216.84
2022-08-19T06:53:59.842Z,101213.02
2022-08-19T06:56:33.019Z,101202.17
2022-08-19T06:59:09.671Z,101193.77
2022-08-19T07:01:39.579Z,101191.48
2022-08-19T07:04:09.727Z,101189.92
2022-08-19T07:06:43.717Z,101194.73
2022-08-19T07:09:18.634Z,101191.51
2022-08-19T07:11:50.320Z,101188.00
2022-08-19T07:14:21.524Z,101192.97
2022-08-19T07:16:51.248Z,101192.83
2022-08-19T07:19:20.483Z,101190.31
2022-08-19T07:21:53.943Z,101190.04
2022-08-19T07:24:25.180Z,101195.27
2022-08-19T07:26:57.982Z,101196.53
2022-08-19T07:29:28.569Z,101195.82
2022-08-19T07:31:57.859Z,101199.67
2022-08-19T07:34:30.439Z,101201.73
2022-08-19T07:36:58.929Z,101198.01
2022-08-19T07:39:30.379Z,101194.22
2022-08-19T07:42:00.656Z,101188.91
2022-08-19T07:44:28.970Z,101187.88
2022-08-19T07:46:58.533Z,101187.54
2022-08-19T07:49:26.596Z,101187.64
2022-08-19T07:52:02.554Z,101191.92
2022-08-19T07:54:35.537Z,101188.91
2022-08-19T07:57:04.557Z,101186.62
2022-08-19T07:59:33.446Z,101181.78
2022-08-19T08:02:02.044Z,101181.86
2022-08-19T08:04:49.781Z,101178.09
2022-08-19T08:07:36.518Z,101176.79
2022-08-19T08:10:08.546Z,101174.04
2022-08-19T08:13:01.837Z,101179.17
2022-08-19T08:15:42.673Z,101183.97
2022-08-19T08:18:12.919Z,101189.02
2022-08-19T08:20:42.879Z,101183.42
2022-08-19T08:23:27.005Z,101180.23
2022-08-19T08:25:58.986Z,101178.23
2022-08-19T08:28:29.308Z,101177.84
2022-08-19T08:30:58.827Z,101178.39
2022-08-19T08:33:34.414Z,101179.54
2022-08-19T08:36:06.435Z,101169.34
2022-08-19T08:38:39.942Z,101170.64
2022-08-19T08:41:28.976Z,101174.94
2022-08-19T08:43:58.447Z,101171.10
2022-08-19T08:46:41.194Z,101169.63
2022-08-19T08:49:27.709Z,101171.27
2022-08-19T08:52:25.158Z,101164.19
2022-08-19T08:55:09.972Z,101168.08
2022-08-19T08:57:45.074Z,101174.77
2022-08-19T09:00:19.045Z,101169.21
2022-08-19T09:02:50.928Z,101168.16
2022-08-19T09:05:25.883Z,101159.78
2022-08-19T09:08:33.146Z,101158.04
2022-08-19T09:11:07.711Z,101156.23
2022-08-19T09:13:49.614Z,101151.58
2022-08-19T09:16:28.082Z,101148.97
2022-08-19T09:19:01.942Z,101150.32
2022-08-19T09:21:34.276Z,101155.63
2022-08-19T09:24:03.747Z,101145.84
2022-08-19T09:26:47.563Z,101144.02
2022-08-19T09:29:22.474Z,101147.16
2022-08-19T09:31:51.235Z,101146.61
2022-08-19T09:34:22.138Z,101149.39
2022-08-19T09:36:54.295Z,101143.29
2022-08-19T09:39:23.827Z,101151.45
2022-08-19T09:41:54.054Z,101146.77
2022-08-19T09:44:22.416Z,101153.30
2022-08-19T09:46:51.970Z,101153.06
2022-08-19T09:49:22.863Z,101156.38
2022-08-19T09:51:57.266Z,101157.31
2022-08-19T09:54:25.594Z,101162.39
2022-08-19T09:56:55.828Z,101162.31
2022-08-19T09:59:24.051Z,101156.95
2022-08-19T10:01:53.002Z,101152.77
2022-08-19T10:04:22.520Z,101154.11
2022-08-19T10:06:57.770Z,101147.65
2022-08-19T10:09:34.582Z,101148.61
2022-08-19T10:12:06.075Z,101140.78
2022-08-19T10:14:35.350Z,101139.61
2022-08-19T10:17:17.447Z,101139.29
2022-08-19T10:19:55.102Z,101137.59
2022-08-19T10:22:25.461Z,101141.30
2022-08-19T10:24:54.784Z,101127.59
2022-08-19T10:27:23.150Z,101125.75
2022-08-19T10:29:51.992Z,101123.71
2022-08-19T10:32:20.164Z,101122.64
2022-08-19T10:35:06.115Z,101125.44
2022-08-19T10:37:34.576Z,101117.13
2022-08-19T10:40:07.001Z,101122.88
2022-08-19T10:42:36.610Z,101111.17
2022-08-19T10:45:07.090Z,101115.66
2022-08-19T10:47:35.698Z,101113.91
2022-08-19T10:50:28.476Z,101111.73
2022-08-19T10:52:57.023Z,101102.98
2022-08-19T10:55:44.375Z,101097.34
2022-08-19T10:58:18.151Z,101094.13
2022-08-19T11:00:54.412Z,101091.81
2022-08-19T11:03:23.023Z,101091.32
2022-08-19T11:06:06.921Z,101086.51
2022-08-19T11:08:38.609Z,101076.10
2022-08-19T11:11:08.176Z,101069.46
2022-08-19T11:13:39.625Z,101066.86
2022-08-19T11:16:14.898Z,101064.83
2022-08-19T11:18:46.743Z,101062.02
2022-08-19T11:21:18.355Z,101060.11
2022-08-19T11:23:48.466Z,101055.18
2022-08-19T11:26:17.833Z,101055.58
2022-08-19T11:28:46.837Z,101051.00
2022-08-19T11:31:19.366Z,101040.38
2022-08-19T11:33:48.158Z,101047.09
2022-08-19T11:36:17.463Z,101042.50
2022-08-19T11:38:46.294Z,101042.94
2022-08-19T11:41:14.332Z,101040.34
2022-08-19T11:43:42.836Z,101033.31
2022-08-19T11:46:14.187Z,101038.43
2022-08-19T11:48:42.874Z,101028.52
2022-08-19T11:51:15.857Z,101021.23
2022-08-19T11:53:43.925Z,101020.64
2022-08-19T11:56:12.613Z,101017.55
2022-08-19T11:58:43.155Z,101014.88
2022-08-19T12:01:13.369Z,101011.77
2022-08-19T12:03:41.844Z,101010.89
2022-08-19T12:06:14.389Z,101003.82
2022-08-19T12:08:44.110Z,101002.90
2022-08-19T12:11:14.711Z,100998.69
2022-08-19T12:13:46.149Z,100994.46
2022-08-19T12:16:18.369Z,100996.67
2022-08-19T12:18:47.552Z,100990.60
2022-08-19T12:21:18.040Z,100993.59
2022-08-19T12:23:46.474Z,100986.68
2022-08-19T12:26:14.644Z,100981.23
2022-08-19T12:28:42.757Z,100976.52
2022-08-19T12:31:13.186Z,100983.23
2022-08-19T12:33:42.691Z,100981.57
2022-08-19T12:36:12.974Z,100981.73
2022-08-19T12:38:41.738Z,100983.83
2022-08-19T12:41:13.312Z,100985.39
2022-08-19T12:43:42.988Z,100987.13
2022-08-19T12:46:11.912Z,100978.40
2022-08-19T12:48:46.736Z,100977.56
2022-08-19T12:51:20.412Z,100973.88
2022-08-19T12:53:48.813Z,100972.55
2022-08-19T12:56:22.282Z,100968.55
2022-08-19T12:58:53.166Z,100966.67
2022-08-19T13:01:23.178Z,100964.88
2022-08-19T13:03:54.716Z,100962.71
2022-08-19T13:06:22.910Z,100951.80
2022-08-19T13:08:51.280Z,100955.41
2022-08-19T13:11:22.004Z,100947.55
2022-08-19T13:13:52.194Z,100942.91
2022-08-19T13:16:21.516Z,100946.16
2022-08-19T13:18:50.407Z,100938.94
2022-08-19T13:21:21.050Z,100936.80
2022-08-19T13:23:52.080Z,100934.64
2022-08-19T13:26:20.581Z,100932.91
2022-08-19T13:29:07.364Z,100930.20
2022-08-19T13:31:56.360Z,100931.73
2022-08-19T13:34:35.123Z,100935.09
2022-08-19T13:37:05.375Z,100934.79
2022-08-19T13:39:35.075Z,100938.71
2022-08-19T13:42:05.316Z,100938.43
2022-08-19T13:44:33.632Z,100941.23
2022-08-19T13:47:08.165Z,100945.39
2022-08-19T13:49:37.442Z,100946.11
2022-08-19T13:52:06.820Z,100940.64
2022-08-19T13:54:35.068Z,100939.55
2022-08-19T13:57:03.298Z,100937.62
2022-08-19T13:59:31.386Z,100933.98
2022-08-19T14:02:01.553Z,100931.48
2022-08-19T14:04:29.630Z,100932.78
2022-08-19T14:06:57.715Z,100937.16
2022-08-19T14:09:25.956Z,100934.52
2022-08-19T14:11:54.020Z,100937.77
2022-08-19T14:14:22.549Z,100936.79
2022-08-19T14:16:50.990Z,100941.94
2022-08-19T14:19:19.158Z,100934.52
2022-08-19T14:21:47.286Z,100933.30
2022-08-19T14:24:15.500Z,100932.79
2022-08-19T14:26:43.774Z,100929.58
2022-08-19T14:29:11.816Z,100928.59
2022-08-19T14:31:41.035Z,100934.05
2022-08-19T14:34:09.215Z,100930.48
2022-08-19T14:36:39.354Z,100932.05
2022-08-19T14:39:07.712Z,100930.11
2022-08-19T14:41:35.783Z,100928.79
2022-08-19T14:44:04.003Z,100926.06
2022-08-19T14:46:32.311Z,100926.02
2022-08-19T14:49:00.604Z,100925.86
2022-08-19T14:51:29.194Z,100924.19
2022-08-19T14:53:57.770Z,100928.60
2022-08-19T14:56:28.709Z,100932.55
2022-08-19T14:59:00.303Z,100934.11
2022-08-19T15:01:29.385Z,100924.64
2022-08-19T15:03:57.676Z,100925.21
2022-08-19T15:06:27.255Z,100922.55
2022-08-19T15:08:57.774Z,100920.45
2022-08-19T15:11:29.224Z,100917.37
2022-08-19T15:13:58.392Z,100914.11
2022-08-19T15:16:27.827Z,100911.64
2022-08-19T15:18:58.679Z,100918.74
2022-08-19T15:21:28.627Z,100915.10
2022-08-19T15:23:58.937Z,100916.98
2022-08-19T15:26:29.308Z,100917.83
2022-08-19T15:28:57.402Z,100915.48
2022-08-19T15:31:28.838Z,100914.73
2022-08-19T15:34:00.821Z,100918.74
2022-08-19T15:36:29.423Z,100917.67
2022-08-19T15:38:57.652Z,100918.82
2022-08-19T15:41:30.788Z,100917.20
2022-08-19T15:44:00.856Z,100922.77
2022-08-19T15:46:32.717Z,100919.40
2022-08-19T15:49:01.467Z,100915.82
2022-08-19T15:51:32.595Z,100915.72
2022-08-19T15:54:02.050Z,100917.66
2022-08-19T15:56:58.185Z,100915.58
2022-08-19T15:59:47.265Z,100917.48
2022-08-19T16:02:37.204Z,100917.67
2022-08-19T16:05:29.234Z,100918.88
2022-08-19T16:07:57.879Z,100919.04
2022-08-19T16:10:28.009Z,100919.70
2022-08-19T16:12:57.863Z,100916.19
2022-08-19T16:15:28.217Z,100917.98
2022-08-19T16:18:02.735Z,100911.94
2022-08-19T16:20:31.930Z,100915.64
2022-08-19T16:23:03.548Z,100917.86
2022-08-19T16:25:31.733Z,100916.30
2022-08-19T16:28:07.367Z,100917.35
2022-08-19T16:30:39.440Z,100914.95
2022-08-19T16:33:09.050Z,100909.30
2022-08-19T16:35:38.219Z,100910.65
2022-08-19T16:38:07.248Z,100907.40
2022-08-19T16:40:35.992Z,100910.60
2022-08-19T16:43:04.711Z,100909.04
2022-08-19T16:45:32.986Z,100907.75
2022-08-19T16:48:01.023Z,100908.52
2022-08-19T16:50:48.318Z,100905.40
2022-08-19T16:53:22.875Z,100910.06
2022-08-19T16:55:53.471Z,100907.87
2022-08-19T16:58:28.556Z,100913.04
2022-08-19T17:01:03.292Z,100910.62
2022-08-19T17:03:36.432Z,100920.04
2022-08-19T17:06:15.853Z,100918.92
2022-08-19T17:08:48.717Z,100922.16
2022-08-19T17:11:19.613Z,100918.92
2022-08-19T17:13:51.066Z,100924.91
2022-08-19T17:16:24.760Z,100934.02
2022-08-19T17:18:54.606Z,100936.13
2022-08-19T17:21:27.795Z,100939.67
2022-08-19T17:24:01.497Z,100940.31
2022-08-19T17:26:30.695Z,100941.98
2022-08-19T17:29:00.006Z,100948.36
2022-08-19T17:31:30.412Z,100945.91
2022-08-19T17:33:59.037Z,100949.69
2022-08-19T17:36:30.854Z,100955.96
2022-08-19T17:39:01.316Z,100954.30
2022-08-19T17:41:30.732Z,100958.48
2022-08-19T17:43:58.995Z,100957.03
2022-08-19T17:46:28.668Z,100956.23
2022-08-19T17:48:57.965Z,100951.59
2022-08-19T17:51:40.627Z,100953.14
2022-08-19T17:54:14.284Z,100952.83
2022-08-19T17:56:43.925Z,100958.58
2022-08-19T17:59:14.080Z,100958.17
2022-08-19T18:01:54.161Z,100958.46
2022-08-19T18:04:25.633Z,100955.94
2022-08-19T18:06:55.537Z,100956.43
2022-08-19T18:09:38.725Z,100957.83
2022-08-19T18:12:12.662Z,100954.95
2022-08-19T18:14:40.742Z,100958.51
2022-08-19T18:17:12.880Z,100959.30
2022-08-19T18:19:43.525Z,100957.73
2022-08-19T18:22:22.655Z,100960.27
2022-08-19T18:24:51.395Z,100963.06
2022-08-19T18:27:20.088Z,100958.41
2022-08-19T18:29:48.366Z,100956.41
2022-08-19T18:32:18.098Z,100947.96
2022-08-19T18:34:53.515Z,100951.09
2022-08-19T18:37:23.359Z,100954.30
2022-08-19T18:40:10.304Z,100954.23
2022-08-19T18:43:03.778Z,100951.61
2022-08-19T18:45:50.954Z,100952.27
2022-08-19T18:48:57.532Z,100954.50
2022-08-19T18:51:30.203Z,100957.82
2022-08-19T18:53:59.674Z,100956.59
2022-08-19T18:56:32.025Z,100954.66
2022-08-19T18:59:01.020Z,100953.98
2022-08-19T19:01:36.800Z,100957.67
2022-08-19T19:04:10.934Z,100959.33
2022-08-19T19:06:41.550Z,100959.43
2022-08-19T19:09:21.136Z,100961.11
2022-08-19T19:11:52.861Z,100960.45
2022-08-19T19:14:47.551Z,100958.06
2022-08-19T19:17:15.426Z,100963.05
2022-08-19T19:19:44.184Z,100973.20
2022-08-19T19:22:15.042Z,100977.00
2022-08-19T19:24:44.547Z,100981.12
2022-08-19T19:27:15.383Z,100980.23
2022-08-19T19:29:43.566Z,100983.48
2022-08-19T19:32:26.236Z,100986.86
2022-08-19T19:34:54.559Z,100987.11
2022-08-19T19:37:23.130Z,100986.11
2022-08-19T19:39:52.813Z,100987.76
2022-08-19T19:42:23.959Z,100983.47
2022-08-19T19:44:55.640Z,100984.82
2022-08-19T19:47:25.899Z,100993.83
2022-08-19T19:52:46.211Z,100995.32
2022-08-19T19:55:18.525Z,100991.63
2022-08-19T19:57:50.161Z,100994.20
2022-08-19T20:00:19.169Z,100992.83
2022-08-19T20:02:50.437Z,100995.66
2022-08-19T20:05:21.637Z,100992.80
2022-08-19T20:08:10.271Z,100986.61
2022-08-19T20:10:40.910Z,100984.85
2022-08-19T20:13:10.510Z,100990.20
2022-08-19T20:15:42.718Z,100990.80
2022-08-19T20:18:14.705Z,100992.96
2022-08-19T20:20:43.913Z,100991.77
2022-08-19T20:23:12.154Z,100996.33
2022-08-19T20:25:40.432Z,100997.77
2022-08-19T20:28:09.364Z,100998.35
2022-08-19T20:30:38.433Z,101001.48
2022-08-19T20:33:14.881Z,101006.09
2022-08-19T20:35:45.057Z,101006.39
2022-08-19T20:38:13.889Z,101007.63
2022-08-19T20:40:41.942Z,101006.75
2022-08-19T20:43:13.048Z,101004.55
2022-08-19T20:45:41.686Z,101001.48
2022-08-19T20:48:12.446Z,100995.61
2022-08-19T20:50:41.105Z,100996.74
2022-08-19T20:53:15.002Z,100998.77
2022-08-19T20:55:45.461Z,100997.87
2022-08-19T20:58:14.119Z,101003.33
2022-08-19T21:00:46.504Z,100999.62
2022-08-19T21:03:20.611Z,101003.95
2022-08-19T21:05:49.595Z,101007.48
2022-08-19T21:08:21.456Z,101008.33
2022-08-19T21:10:51.319Z,101013.17
2022-08-19T21:13:21.341Z,101009.04
2022-08-19T21:15:50.686Z,101011.75
2022-08-19T21:18:20.571Z,101009.80
2022-08-19T21:20:50.389Z,101007.98
2022-08-19T21:23:25.216Z,101004.83
2022-08-19T21:25:54.876Z,101004.35
2022-08-19T21:28:29.990Z,101004.77
2022-08-19T21:31:07.063Z,101003.16
2022-08-19T21:33:35.237Z,101005.21
2022-08-19T21:36:04.976Z,101003.70
2022-08-19T21:38:33.053Z,101013.94
2022-08-19T21:41:05.851Z,101014.29
2022-08-19T21:43:36.359Z,101011.21
2022-08-19T21:46:05.001Z,101015.05
2022-08-19T21:48:33.280Z,101012.75
2022-08-19T21:51:01.455Z,101016.04
2022-08-19T21:53:31.304Z,101016.52
2022-08-19T21:56:04.290Z,101015.19
2022-08-19T21:58:33.674Z,101011.74
2022-08-19T22:01:06.096Z,101013.55
2022-08-19T22:03:35.829Z,101013.33
2022-08-19T22:06:04.784Z,101010.14
2022-08-19T22:08:32.902Z,101007.54
2022-08-19T22:11:02.999Z,101003.70
2022-08-19T22:13:39.933Z,100999.14
2022-08-19T22:16:09.794Z,100998.05
2022-08-19T22:18:38.082Z,100996.55
2022-08-19T22:21:11.258Z,100990.72
2022-08-19T22:23:42.308Z,100995.05
2022-08-19T22:26:12.630Z,100994.64
2022-08-19T22:28:42.799Z,100998.73
2022-08-19T22:31:12.261Z,100993.01
2022-08-19T22:33:40.701Z,100997.75
2022-08-19T22:36:08.828Z,100999.23
2022-08-19T22:38:38.418Z,100996.94
2022-08-19T22:41:08.025Z,100998.11
2022-08-19T22:43:37.643Z,101001.48
2022-08-19T22:46:15.085Z,101003.27
2022-08-19T22:48:47.092Z,100999.25
2022-08-19T22:51:34.814Z,100997.58
2022-08-19T22:54:04.186Z,100988.80
2022-08-19T22:56:32.277Z,100985.83
2022-08-19T22:59:00.393Z,100984.52
2022-08-19T23:01:30.265Z,100986.63
2022-08-19T23:04:00.224Z,100988.52
2022-08-19T23:06:34.650Z,100986.13
2022-08-19T23:09:07.264Z,100989.30
2022-08-19T23:11:38.255Z,100987.70
2022-08-19T23:14:11.520Z,100992.96
2022-08-19T23:16:41.335Z,100998.09
2022-08-19T23:19:10.733Z,100999.30
2022-08-19T23:21:42.064Z,101001.45
2022-08-19T23:24:11.270Z,101011.39
2022-08-19T23:27:00.246Z,101013.81
2022-08-19T23:29:47.296Z,101016.86
2022-08-19T23:32:19.207Z,101024.23
2022-08-19T23:34:47.681Z,101035.87
2022-08-19T23:37:15.814Z,101043.81
2022-08-19T23:39:45.144Z,101047.80
2022-08-19T23:42:13.988Z,101050.59
2022-08-19T23:44:51.996Z,101058.67
2022-08-19T23:47:21.755Z,101056.76
2022-08-19T23:49:50.901Z,101059.36
2022-08-19T23:52:19.581Z,101064.55
2022-08-19T23:54:47.795Z,101066.33
2022-08-19T23:57:15.880Z,101065.20
2022-08-19T23:59:45.792Z,101062.96
